Time;durP1;ratioP1;P1;durP2;ratioP2;P2;SDS_P1;SDS_P2;PMS_P1;PMS_P2;Temp;Humidity;BMP_temperature;BMP_pressure;BME280_temperature;BME280_humidity;BME280_pressure;Samples;Min_cycle;Max_cycle;Signal;HPM_P1;HPM_P2
2022/10/05 00:00:18;;;;;;;11.20;5.97;;;16.10;77.30;;;;;;5113451;28;20028;-71
2022/10/05 00:02:45;;;;;;;12.05;5.75;;;16.20;77.50;;;;;;5113485;28;20020;-71
2022/10/05 00:05:29;;;;;;;9.10;5.35;;;16.20;77.40;;;;;;5113385;28;20024;-71
2022/10/05 00:08:03;;;;;;;12.43;6.45;;;16.20;77.30;;;;;;5117204;28;20055;-71
2022/10/05 00:10:29;;;;;;;10.73;5.80;;;16.20;77.40;;;;;;5117599;28;20050;-71
2022/10/05 00:12:54;;;;;;;10.15;5.90;;;16.20;77.20;;;;;;5117511;28;20044;-71
2022/10/05 00:15:21;;;;;;;14.93;6.63;;;16.30;77.20;;;;;;5117449;28;20070;-71
2022/10/05 00:17:47;;;;;;;12.63;6.85;;;16.20;77.40;;;;;;5117395;28;20047;-71
2022/10/05 00:20:25;;;;;;;11.55;6.90;;;16.20;77.50;;;;;;5117486;28;20087;-71
2022/10/05 00:22:56;;;;;;;11.55;5.88;;;16.20;77.40;;;;;;5117282;28;20024;-71
2022/10/05 00:25:23;;;;;;;14.25;6.20;;;16.20;77.60;;;;;;5117298;28;20043;-71
2022/10/05 00:27:59;;;;;;;13.27;6.18;;;16.20;77.50;;;;;;5117153;28;20024;-71
2022/10/05 00:30:31;;;;;;;16.92;7.18;;;16.20;77.60;;;;;;5117096;28;20043;-71
2022/10/05 00:32:57;;;;;;;11.40;6.47;;;16.10;77.80;;;;;;5117315;28;20012;-71
2022/10/05 00:35:22;;;;;;;13.77;6.90;;;16.10;77.80;;;;;;5117062;28;20092;-71
2022/10/05 00:37:53;;;;;;;12.55;6.45;;;16.10;77.80;;;;;;5117004;28;20050;-71
2022/10/05 00:40:49;;;;;;;9.77;6.20;;;16.10;77.90;;;;;;5116973;28;20086;-71
2022/10/05 00:43:27;;;;;;;11.82;6.55;;;16.10;78.00;;;;;;5117083;28;20028;-71
2022/10/05 00:46:09;;;;;;;12.52;6.78;;;16.10;78.20;;;;;;5116983;28;20048;-71
2022/10/05 00:48:44;;;;;;;11.90;6.15;;;16.10;78.20;;;;;;5117026;28;20170;-71
2022/10/05 00:51:34;;;;;;;10.23;6.28;;;16.10;78.20;;;;;;5116664;28;20059;-71
2022/10/05 00:54:12;;;;;;;11.45;6.85;;;16.10;78.30;;;;;;5116707;28;20035;-71
2022/10/05 00:56:55;;;;;;;9.93;6.00;;;16.00;78.30;;;;;;5116837;28;20028;-71
2022/10/05 00:59:24;;;;;;;11.93;6.13;;;16.00;78.20;;;;;;5116779;28;20055;-71
2022/10/05 01:01:52;;;;;;;12.82;6.57;;;16.00;78.40;;;;;;5116582;28;20036;-71
2022/10/05 01:04:29;;;;;;;13.57;6.45;;;16.00;78.50;;;;;;5116509;28;20032;-71
2022/10/05 01:07:09;;;;;;;14.73;7.00;;;16.00;78.50;;;;;;5116466;28;20047;-71
2022/10/05 01:09:56;;;;;;;12.45;6.88;;;16.00;78.40;;;;;;5116476;28;20043;-71
2022/10/05 01:12:44;;;;;;;14.00;7.13;;;16.10;78.30;;;;;;5116405;28;20024;-71
2022/10/05 01:15:28;;;;;;;12.30;6.45;;;16.00;78.40;;;;;;5116320;28;20054;-71
2022/10/05 01:18:23;;;;;;;12.13;7.10;;;15.90;78.60;;;;;;5115879;28;20103;-71
2022/10/05 01:21:02;;;;;;;12.55;6.32;;;16.00;78.90;;;;;;5116377;28;20031;-71
2022/10/05 01:23:58;;;;;;;10.70;6.47;;;16.00;79.10;;;;;;5116224;28;20025;-71
2022/10/05 01:26:30;;;;;;;14.27;6.70;;;15.90;79.30;;;;;;5116075;28;20036;-71
2022/10/05 01:29:17;;;;;;;11.70;6.15;;;15.90;79.20;;;;;;5116194;28;20024;-71
2022/10/05 01:32:25;;;;;;;10.98;7.18;;;15.90;79.20;;;;;;5115994;28;20051;-71
2022/10/05 01:35:03;;;;;;;9.60;6.22;;;15.90;79.30;;;;;;5087016;28;20040;-71
2022/10/05 01:37:48;;;;;;;10.68;6.50;;;15.80;79.50;;;;;;5116088;28;20020;-71
2022/10/05 01:40:25;;;;;;;13.73;7.22;;;15.90;79.70;;;;;;5116020;28;20083;-71
2022/10/05 01:43:10;;;;;;;13.00;6.13;;;15.80;79.60;;;;;;5115937;28;20020;-71
2022/10/05 01:45:57;;;;;;;10.75;6.07;;;15.80;79.70;;;;;;5115768;28;20016;-71
2022/10/05 01:48:50;;;;;;;12.93;6.93;;;15.80;79.70;;;;;;5115743;28;20012;-71
2022/10/05 01:51:47;;;;;;;10.38;6.30;;;15.80;79.70;;;;;;5115390;28;20052;-71
2022/10/05 01:54:13;;;;;;;12.18;6.38;;;15.90;79.70;;;;;;5115692;28;20024;-71
2022/10/05 01:56:53;;;;;;;12.77;6.18;;;15.80;80.60;;;;;;5115657;28;20372;-71
2022/10/05 01:59:25;;;;;;;10.98;6.72;;;15.80;79.80;;;;;;5115621;28;20025;-71
2022/10/05 02:02:00;;;;;;;12.77;6.22;;;15.80;79.90;;;;;;5115608;28;20360;-71
2022/10/05 02:04:41;;;;;;;11.35;7.35;;;15.80;79.80;;;;;;5115536;28;20020;-71
2022/10/05 02:07:19;;;;;;;14.55;6.88;;;15.90;79.80;;;;;;5115416;28;20020;-71
2022/10/05 02:09:51;;;;;;;13.93;6.53;;;15.80;80.00;;;;;;5115274;28;20016;-71
2022/10/05 02:12:20;;;;;;;11.63;7.07;;;15.80;80.10;;;;;;5115259;28;20016;-71
2022/10/05 02:14:53;;;;;;;12.20;6.53;;;15.80;80.20;;;;;;5115121;28;20068;-71
2022/10/05 02:17:26;;;;;;;10.75;6.32;;;15.70;80.40;;;;;;5115141;28;20076;-71
2022/10/05 02:19:58;;;;;;;12.13;6.85;;;15.70;80.60;;;;;;5115115;28;20107;-71
2022/10/05 02:22:33;;;;;;;;;;;15.70;80.50;;;;;;5115448;28;20024;-71
2022/10/05 02:25:07;;;;;;;11.60;6.28;;;15.70;80.50;;;;;;5114966;28;19911;-71
2022/10/05 02:27:37;;;;;;;11.20;6.10;;;15.60;80.80;;;;;;5114880;28;20027;-71
2022/10/05 02:30:06;;;;;;;11.68;6.47;;;15.60;80.80;;;;;;5114043;28;20020;-71
2022/10/05 02:32:41;;;;;;;14.15;6.95;;;15.60;80.80;;;;;;5114754;28;20020;-71
2022/10/05 02:35:13;;;;;;;10.27;6.43;;;15.70;80.70;;;;;;5114837;28;20023;-71
2022/10/05 02:37:47;;;;;;;11.80;6.70;;;15.70;80.70;;;;;;5114768;28;20079;-71
2022/10/05 02:40:37;;;;;;;11.90;7.10;;;15.70;80.70;;;;;;5114856;28;20027;-71
2022/10/05 02:43:15;;;;;;;11.75;6.38;;;15.70;80.80;;;;;;5114645;28;20028;-71
2022/10/05 02:45:54;;;;;;;13.05;6.50;;;15.70;80.80;;;;;;5114720;28;20044;-71
2022/10/05 02:48:28;;;;;;;11.73;6.30;;;15.60;81.00;;;;;;5114617;28;20044;-71
2022/10/05 02:51:09;;;;;;;12.75;6.15;;;15.60;81.10;;;;;;5114368;28;20051;-71
2022/10/05 02:53:40;;;;;;;12.13;6.80;;;15.60;81.00;;;;;;5114476;28;20020;-71
2022/10/05 02:56:24;;;;;;;10.17;6.53;;;15.60;81.20;;;;;;5114466;28;20024;-71
2022/10/05 02:59:11;;;;;;;13.05;6.82;;;15.70;81.00;;;;;;5114492;28;20084;-71
2022/10/05 03:01:36;;;;;;;13.52;6.18;;;15.70;80.70;;;;;;5114444;28;20063;-71
2022/10/05 03:04:40;;;;;;;17.08;5.88;;;15.60;80.90;;;;;;5114255;28;20024;-71
2022/10/05 03:07:20;;;;;;;10.55;6.75;;;15.70;80.90;;;;;;5114088;28;20028;-71
2022/10/05 03:09:58;;;;;;;9.93;6.05;;;15.60;80.80;;;;;;5114321;28;20439;-71
2022/10/05 03:12:32;;;;;;;11.40;6.13;;;15.70;80.70;;;;;;5114142;28;20022;-71
2022/10/05 03:15:19;;;;;;;14.05;6.18;;;15.60;80.70;;;;;;5114228;28;20102;-71
2022/10/05 03:18:04;;;;;;;10.00;5.65;;;15.70;81.00;;;;;;5114049;28;20051;-70
2022/10/05 03:20:44;;;;;;;10.45;6.13;;;15.60;80.70;;;;;;5113971;28;20035;-71
2022/10/05 03:23:29;;;;;;;13.43;6.28;;;15.60;80.90;;;;;;5114039;28;20096;-71
2022/10/05 03:26:16;;;;;;;11.85;6.28;;;15.50;81.10;;;;;;5113850;28;20052;-71
2022/10/05 03:29:00;;;;;;;11.23;6.18;;;15.50;81.20;;;;;;5113985;28;20020;-71
2022/10/05 03:32:01;;;;;;;10.65;6.03;;;15.50;81.20;;;;;;5113859;28;20070;-71
2022/10/05 03:34:59;;;;;;;10.70;5.90;;;15.50;81.10;;;;;;5084901;28;20109;-71
2022/10/05 03:37:43;;;;;;;14.00;6.25;;;15.60;81.00;;;;;;5113795;28;20028;-71
2022/10/05 03:40:50;;;;;;;12.20;5.70;;;15.60;81.00;;;;;;5113568;28;20043;-71
2022/10/05 03:43:50;;;;;;;12.98;6.20;;;15.60;81.00;;;;;;5079575;28;20036;-71
2022/10/05 03:46:36;;;;;;;11.15;6.38;;;15.60;80.90;;;;;;5113585;28;20038;-71
2022/10/05 03:49:10;;;;;;;12.38;6.68;;;15.60;80.90;;;;;;5102541;28;20046;-71
2022/10/05 03:51:42;;;;;;;10.38;6.05;;;15.60;81.10;;;;;;5113724;28;20028;-71
2022/10/05 03:54:18;;;;;;;10.60;5.68;;;15.60;81.20;;;;;;5113612;28;20013;-70
2022/10/05 03:56:50;;;;;;;10.73;6.13;;;15.60;81.10;;;;;;5095719;28;20031;-71
2022/10/05 03:59:32;;;;;;;10.52;6.10;;;15.60;81.10;;;;;;5113477;28;20024;-71
2022/10/05 04:02:03;;;;;;;10.50;6.53;;;15.60;81.10;;;;;;5113677;28;20049;-70
2022/10/05 04:04:45;;;;;;;12.10;6.38;;;15.60;81.20;;;;;;5113487;28;20028;-71
2022/10/05 04:07:39;;;;;;;11.70;6.35;;;15.60;81.20;;;;;;5113396;28;20032;-71
2022/10/05 04:10:13;;;;;;;13.65;6.35;;;15.50;81.30;;;;;;5102506;28;20032;-71
2022/10/05 04:12:42;;;;;;;13.00;6.03;;;15.50;81.50;;;;;;5113459;28;20024;-71
2022/10/05 04:15:14;;;;;;;10.25;6.32;;;15.50;81.40;;;;;;5113362;28;20031;-71
2022/10/05 04:17:43;;;;;;;12.40;7.07;;;15.50;81.40;;;;;;5113391;28;20035;-71
2022/10/05 04:20:16;;;;;;;11.25;6.05;;;15.50;81.60;;;;;;5113296;28;20030;-71
2022/10/05 04:22:49;;;;;;;10.43;6.50;;;15.50;81.50;;;;;;5113317;28;20028;-71
2022/10/05 04:25:20;;;;;;;11.00;6.32;;;15.60;81.30;;;;;;5113277;28;20035;-70
2022/10/05 04:28:09;;;;;;;11.88;6.93;;;15.60;81.30;;;;;;5113221;28;20027;-71
2022/10/05 04:30:39;;;;;;;10.00;6.20;;;15.60;81.30;;;;;;5113176;28;20031;-71
2022/10/05 04:33:10;;;;;;;12.70;6.35;;;15.50;81.50;;;;;;5113268;28;20020;-71
2022/10/05 04:36:17;;;;;;;12.68;6.03;;;15.50;81.60;;;;;;5095553;28;20020;-71
2022/10/05 04:39:17;;;;;;;10.02;6.07;;;15.50;81.70;;;;;;5113307;28;20020;-71
2022/10/05 04:42:08;;;;;;;11.52;6.10;;;15.50;82.00;;;;;;5113123;28;20433;-71
2022/10/05 04:44:54;;;;;;;12.38;6.22;;;15.40;82.10;;;;;;5113130;28;20027;-71
2022/10/05 04:47:50;;;;;;;11.52;5.93;;;15.40;82.00;;;;;;5113119;28;20039;-71
2022/10/05 04:50:33;;;;;;;11.80;6.70;;;15.40;82.10;;;;;;5112967;28;20059;-71
2022/10/05 04:53:14;;;;;;;9.95;5.85;;;15.40;82.20;;;;;;5115004;28;20080;-71
2022/10/05 04:56:02;;;;;;;11.18;5.75;;;15.40;82.50;;;;;;5116824;28;20027;-71
2022/10/05 04:58:31;;;;;;;13.10;6.22;;;15.40;82.20;;;;;;5116716;28;20016;-71
2022/10/05 05:01:06;;;;;;;13.60;6.22;;;15.40;82.10;;;;;;5116686;28;20037;-71
2022/10/05 05:03:45;;;;;;;11.90;6.03;;;15.40;82.30;;;;;;5116591;28;20024;-70
2022/10/05 05:06:32;;;;;;;11.05;5.85;;;15.30;82.30;;;;;;5116598;28;20024;-70
2022/10/05 05:09:24;;;;;;;10.32;5.80;;;15.40;82.30;;;;;;5116549;28;20024;-71
2022/10/05 05:12:09;;;;;;;;;;;15.40;82.20;;;;;;5116857;28;20028;-71
2022/10/05 05:14:50;;;;;;;11.07;5.47;;;15.30;82.40;;;;;;5116364;28;20366;-71
2022/10/05 05:17:43;;;;;;;13.50;5.88;;;15.20;82.60;;;;;;5116493;28;20016;-70
2022/10/05 05:20:27;;;;;;;10.27;5.47;;;15.20;83.00;;;;;;5116291;28;20103;-71
2022/10/05 05:23:10;;;;;;;11.68;5.38;;;15.20;82.70;;;;;;5116234;28;20027;-71
2022/10/05 05:25:42;;;;;;;10.07;5.60;;;15.20;82.90;;;;;;5116167;28;20032;-71
2022/10/05 05:28:39;;;;;;;11.88;5.38;;;15.30;82.80;;;;;;5116214;28;20028;-71
2022/10/05 05:31:38;;;;;;;14.20;6.35;;;15.20;82.90;;;;;;5116066;28;20024;-71
2022/10/05 05:34:28;;;;;;;11.05;5.25;;;15.20;82.70;;;;;;5116133;28;20028;-71
2022/10/05 05:37:17;;;;;;;8.85;5.30;;;15.20;82.70;;;;;;5115944;28;20028;-71
2022/10/05 05:39:46;;;;;;;8.68;5.05;;;15.30;82.60;;;;;;5116044;28;20028;-71
2022/10/05 05:42:29;;;;;;;10.45;5.32;;;15.30;82.50;;;;;;5115802;28;20034;-71
2022/10/05 05:45:03;;;;;;;12.43;5.35;;;15.20;82.50;;;;;;5115806;28;20020;-71
2022/10/05 05:47:39;;;;;;;9.63;5.30;;;15.20;82.50;;;;;;5115643;28;20016;-70
2022/10/05 05:50:18;;;;;;;10.25;5.57;;;15.20;82.60;;;;;;5115582;28;20051;-71
2022/10/05 05:53:00;;;;;;;9.60;5.20;;;15.30;82.40;;;;;;5115772;28;20027;-71
2022/10/05 05:55:39;;;;;;;10.15;5.55;;;15.20;82.50;;;;;;5115630;28;20024;-71
2022/10/05 05:58:23;;;;;;;9.55;5.55;;;15.20;82.60;;;;;;5115540;28;20028;-71
2022/10/05 06:01:17;;;;;;;10.40;5.68;;;15.20;82.70;;;;;;5115658;28;20040;-71
2022/10/05 06:03:56;;;;;;;10.15;5.43;;;15.20;82.90;;;;;;5114237;28;20024;-71
2022/10/05 06:06:29;;;;;;;10.73;5.90;;;15.10;82.90;;;;;;5115303;28;20020;-71
2022/10/05 06:09:25;;;;;;;8.73;5.28;;;15.20;82.90;;;;;;5115292;28;20013;-71
2022/10/05 06:11:56;;;;;;;10.43;5.78;;;15.20;82.70;;;;;;5115233;28;20024;-71
2022/10/05 06:14:46;;;;;;;10.32;5.38;;;15.20;83.00;;;;;;5115320;28;20079;-71
2022/10/05 06:17:21;;;;;;;11.30;5.60;;;15.20;82.90;;;;;;5114973;28;20050;-71
2022/10/05 06:19:48;;;;;;;10.57;4.57;;;15.20;82.90;;;;;;5115145;28;20023;-71
2022/10/05 06:22:17;;;;;;;8.50;5.32;;;15.20;82.90;;;;;;5115007;28;20057;-71
2022/10/05 06:25:08;;;;;;;8.85;4.70;;;15.10;82.70;;;;;;5114969;28;20109;-70
2022/10/05 06:27:55;;;;;;;10.57;4.95;;;15.10;83.70;;;;;;5115019;28;20044;-70
2022/10/05 06:30:21;;;;;;;8.63;4.88;;;15.20;82.80;;;;;;5114804;28;20038;-70
2022/10/05 06:32:49;;;;;;;8.82;4.90;;;15.30;82.60;;;;;;5114813;28;20109;-71
2022/10/05 06:36:13;;;;;;;9.48;5.15;;;15.30;82.50;;;;;;5114760;28;20394;-70
2022/10/05 06:38:39;;;;;;;12.73;5.43;;;15.40;82.00;;;;;;5052600;28;20022;-71
2022/10/05 06:41:31;;;;;;;9.25;4.70;;;15.30;82.00;;;;;;5111385;28;20053;-70
2022/10/05 06:44:08;;;;;;;8.88;5.00;;;15.30;82.10;;;;;;5096797;28;20030;-70
2022/10/05 06:46:56;;;;;;;7.72;4.32;;;15.30;82.00;;;;;;5114624;28;20024;-71
2022/10/05 06:49:23;;;;;;;7.40;4.20;;;15.30;81.70;;;;;;5114324;28;20036;-71
2022/10/05 06:52:04;;;;;;;9.73;4.78;;;15.40;81.60;;;;;;5114467;28;20030;-71
2022/10/05 06:54:54;;;;;;;7.85;4.57;;;15.40;81.70;;;;;;5114404;28;20110;-71
2022/10/05 06:57:38;;;;;;;8.77;4.55;;;15.40;81.60;;;;;;5114538;28;20028;-71
2022/10/05 07:00:15;;;;;;;9.40;4.70;;;15.40;81.60;;;;;;5114475;28;20069;-70
2022/10/05 07:02:57;;;;;;;8.80;4.60;;;15.50;81.60;;;;;;5114268;28;20035;-70
2022/10/05 07:05:42;;;;;;;;;;;15.50;81.40;;;;;;5114056;28;20062;-70
2022/10/05 07:08:35;;;;;;;7.40;4.18;;;15.50;81.30;;;;;;5114323;28;19908;-70
2022/10/05 07:11:13;;;;;;;10.55;4.63;;;15.50;81.50;;;;;;5114133;28;20050;-70
2022/10/05 07:14:02;;;;;;;7.72;4.75;;;15.50;81.60;;;;;;5114302;28;20024;-70
2022/10/05 07:16:58;;;;;;;7.45;4.53;;;15.50;81.70;;;;;;5105457;28;20095;-70
2022/10/05 07:20:00;;;;;;;8.23;4.53;;;15.50;81.60;;;;;;5114204;28;20032;-71
2022/10/05 07:22:47;;;;;;;5.78;3.90;;;15.50;81.70;;;;;;5081348;28;20036;-70
2022/10/05 07:25:35;;;;;;;9.25;4.53;;;15.60;81.60;;;;;;5113881;28;20095;-70
2022/10/05 07:28:15;;;;;;;7.20;4.10;;;15.60;81.60;;;;;;5113817;28;20028;-71
2022/10/05 07:31:05;;;;;;;8.98;4.45;;;15.60;81.40;;;;;;5113811;28;20471;-70
2022/10/05 07:34:08;;;;;;;7.25;4.38;;;15.60;81.10;;;;;;5113950;28;20413;-70
2022/10/05 07:40:04;;;;;;;8.45;4.88;;;15.70;81.00;;;;;;5113821;28;20054;-70
2022/10/05 07:42:39;;;;;;;8.07;5.00;;;15.80;81.10;;;;;;5051462;28;20037;-71
2022/10/05 07:45:40;;;;;;;9.10;4.38;;;15.80;80.90;;;;;;5051519;28;20052;-70
2022/10/05 07:48:19;;;;;;;6.60;4.28;;;15.80;81.10;;;;;;5053278;28;20044;-71
2022/10/05 07:50:59;;;;;;;6.57;4.40;;;15.80;81.30;;;;;;5113414;28;20066;-71
2022/10/05 07:53:52;;;;;;;7.80;4.07;;;15.90;81.10;;;;;;5113700;28;20027;-72
2022/10/05 07:56:45;;;;;;;7.05;4.40;;;15.90;81.10;;;;;;5113552;28;20074;-71
2022/10/05 07:59:21;;;;;;;6.93;4.22;;;15.90;82.00;;;;;;5111347;28;20043;-71
2022/10/05 08:05:34;;;;;;;7.57;4.25;;;16.00;81.60;;;;;;4997140;28;20131;-71
2022/10/05 08:08:30;;;;;;;8.55;4.00;;;15.90;80.70;;;;;;5108242;28;20100;-71
2022/10/05 08:11:08;;;;;;;6.32;4.20;;;16.00;80.80;;;;;;5113564;28;20034;-71
2022/10/05 08:13:51;;;;;;;8.05;3.97;;;16.00;80.60;;;;;;5095457;28;20020;-71
2022/10/05 08:16:18;;;;;;;7.85;3.92;;;16.00;80.50;;;;;;5113357;28;20016;-71
2022/10/05 08:18:49;;;;;;;6.30;3.97;;;16.00;80.20;;;;;;5113303;28;20087;-70
2022/10/05 08:21:19;;;;;;;6.28;3.70;;;16.10;80.30;;;;;;5095463;28;20024;-70
2022/10/05 08:23:53;;;;;;;6.70;3.92;;;16.10;80.40;;;;;;5113339;28;20095;-70
2022/10/05 08:26:21;;;;;;;8.35;3.95;;;16.20;80.50;;;;;;5113221;28;20028;-70
2022/10/05 08:32:27;;;;;;;7.70;3.90;;;16.30;80.00;;;;;;5055015;28;20049;-69
2022/10/05 08:35:38;;;;;;;7.95;3.95;;;16.30;79.70;;;;;;5054952;28;20097;-69
2022/10/05 08:38:36;;;;;;;9.95;4.30;;;16.40;79.70;;;;;;5054767;28;20040;-69
2022/10/05 08:41:46;;;;;;;7.93;3.63;;;16.40;79.90;;;;;;5001715;28;20061;-70
2022/10/05 08:44:54;;;;;;;6.43;3.55;;;16.50;79.50;;;;;;5015297;28;20073;-69
2022/10/05 08:47:57;;;;;;;5.55;3.65;;;16.50;79.60;;;;;;4987970;28;20061;-69
2022/10/05 08:50:25;;;;;;;;;;;16.40;79.20;;;;;;5073163;28;20064;-69
2022/10/05 08:53:00;;;;;;;6.40;3.47;;;16.40;79.30;;;;;;5074724;28;19909;-69
2022/10/05 08:55:50;;;;;;;6.53;3.63;;;16.40;79.40;;;;;;5074693;28;20042;-69
2022/10/05 08:58:53;;;;;;;8.30;3.90;;;16.50;79.70;;;;;;5074532;28;20033;-69
2022/10/05 09:01:48;;;;;;;5.53;3.42;;;16.60;79.80;;;;;;5074753;28;20439;-69
2022/10/05 09:04:16;;;;;;;7.78;4.05;;;16.70;79.60;;;;;;5074420;28;20084;-69
2022/10/05 09:06:49;;;;;;;6.40;3.53;;;16.70;79.70;;;;;;5074261;28;20033;-69
2022/10/05 09:09:46;;;;;;;5.10;3.22;;;16.70;79.10;;;;;;5074451;28;20021;-70
2022/10/05 09:12:17;;;;;;;6.72;3.88;;;16.80;79.20;;;;;;5074272;28;20116;-70
2022/10/05 09:15:11;;;;;;;8.32;4.10;;;16.90;79.00;;;;;;5074265;28;20021;-70
2022/10/05 09:18:01;;;;;;;7.05;4.05;;;16.90;78.70;;;;;;5074195;28;20044;-71
2022/10/05 09:20:37;;;;;;;7.55;3.70;;;17.00;78.70;;;;;;5074311;28;20029;-71
2022/10/05 09:23:35;;;;;;;6.10;3.47;;;17.00;78.80;;;;;;5074109;28;20071;-71
2022/10/05 09:26:23;;;;;;;7.63;3.75;;;17.10;78.20;;;;;;5110700;28;20044;-71
2022/10/05 09:29:10;;;;;;;5.70;3.42;;;17.10;78.00;;;;;;5085739;28;20157;-71
2022/10/05 09:31:56;;;;;;;6.53;3.45;;;17.10;78.50;;;;;;5116124;28;20072;-70
2022/10/05 09:34:43;;;;;;;7.18;3.60;;;17.20;78.00;;;;;;5116141;28;20045;-71
2022/10/05 09:37:12;;;;;;;6.28;3.70;;;17.10;78.00;;;;;;5116017;28;20030;-71
2022/10/05 09:39:46;;;;;;;7.65;3.70;;;17.20;77.70;;;;;;5115645;28;20028;-71
2022/10/05 09:42:12;;;;;;;8.45;3.75;;;17.20;77.70;;;;;;5115859;28;20028;-71
2022/10/05 09:45:05;;;;;;;5.80;3.80;;;17.20;78.20;;;;;;5115811;28;20055;-71
2022/10/05 09:47:58;;;;;;;6.35;3.95;;;17.40;78.30;;;;;;5115701;28;20042;-70
2022/10/05 09:51:05;;;;;;;4.50;3.25;;;17.40;77.30;;;;;;5115540;28;20044;-70
2022/10/05 09:54:09;;;;;;;5.25;3.75;;;17.40;77.20;;;;;;5115081;28;20044;-70
2022/10/05 09:57:05;;;;;;;4.82;3.40;;;17.40;77.50;;;;;;5115698;28;20027;-70
2022/10/05 10:00:20;;;;;;;5.40;3.50;;;17.40;76.80;;;;;;5115755;28;20055;-73
2022/10/05 10:03:13;;;;;;;8.10;3.15;;;17.40;76.90;;;;;;5115487;28;20024;-73
2022/10/05 10:05:47;;;;;;;5.28;3.45;;;17.40;76.50;;;;;;5115538;28;20036;-72
2022/10/05 10:08:18;;;;;;;4.82;3.20;;;17.40;76.50;;;;;;5097334;28;20032;-72
2022/10/05 10:11:29;;;;;;;6.38;3.60;;;17.50;76.90;;;;;;5115432;28;20020;-72
2022/10/05 10:14:22;;;;;;;5.07;3.20;;;17.50;76.80;;;;;;5053099;28;20022;-72
2022/10/05 10:17:05;;;;;;;7.13;3.13;;;17.60;76.80;;;;;;5053145;28;20132;-73
2022/10/05 10:20:04;;;;;;;5.57;3.40;;;17.60;76.50;;;;;;5099650;28;20036;-72
2022/10/05 10:22:33;;;;;;;4.97;3.03;;;17.60;76.10;;;;;;5115278;28;20024;-72
2022/10/05 10:25:35;;;;;;;5.72;3.17;;;17.60;76.20;;;;;;5115022;28;20047;-73
2022/10/05 10:28:28;;;;;;;6.07;3.03;;;17.70;75.60;;;;;;5115056;28;20500;-72
2022/10/05 10:31:14;;;;;;;4.93;3.03;;;17.80;76.20;;;;;;5115127;28;20026;-71
2022/10/05 10:33:55;;;;;;;4.22;2.97;;;17.80;75.90;;;;;;5115077;28;20055;-72
2022/10/05 10:37:02;;;;;;;4.45;2.92;;;17.90;75.90;;;;;;5114987;28;20036;-72
2022/10/05 10:39:33;;;;;;;4.60;3.00;;;17.90;75.30;;;;;;5052588;28;20034;-73
2022/10/05 10:42:23;;;;;;;7.00;3.30;;;18.10;75.80;;;;;;5104101;28;20040;-72
2022/10/05 10:45:08;;;;;;;4.68;2.97;;;18.20;75.60;;;;;;5114831;28;20020;-73
2022/10/05 10:47:47;;;;;;;6.35;3.28;;;18.30;74.20;;;;;;5114711;28;20050;-72
2022/10/05 10:50:44;;;;;;;4.90;2.78;;;18.40;74.40;;;;;;5113787;28;20040;-72
2022/10/05 10:53:39;;;;;;;3.65;2.60;;;18.50;74.10;;;;;;5114552;28;20087;-71
2022/10/05 10:56:14;;;;;;;4.80;2.67;;;18.60;72.90;;;;;;5114633;28;20024;-71
2022/10/05 10:59:07;;;;;;;3.72;2.80;;;18.60;73.30;;;;;;5114591;28;20031;-72
2022/10/05 11:02:25;;;;;;;5.78;2.70;;;18.60;72.30;;;;;;5114531;28;20056;-71
2022/10/05 11:05:13;;;;;;;3.50;2.40;;;18.60;72.60;;;;;;5114494;28;20031;-72
2022/10/05 11:08:26;;;;;;;4.82;2.67;;;18.60;73.10;;;;;;5114189;28;20043;-72
2022/10/05 11:11:26;;;;;;;4.63;2.10;;;18.50;72.20;;;;;;5087191;28;20052;-72
2022/10/05 11:14:22;;;;;;;6.05;2.50;;;18.60;72.90;;;;;;5114331;28;20027;-72
2022/10/05 11:16:56;;;;;;;5.20;2.28;;;18.70;72.90;;;;;;5114254;28;20026;-72
2022/10/05 11:19:59;;;;;;;3.30;2.28;;;18.80;72.90;;;;;;5114074;28;20024;-71
2022/10/05 11:22:59;;;;;;;5.85;2.30;;;18.90;72.60;;;;;;5114003;28;20032;-71
2022/10/05 11:25:46;;;;;;;4.13;2.20;;;18.90;71.50;;;;;;5096550;28;20032;-71
2022/10/05 11:28:26;;;;;;;4.13;2.10;;;19.00;71.70;;;;;;5113830;28;20032;-71
2022/10/05 11:31:00;;;;;;;3.95;2.20;;;19.00;71.50;;;;;;5114026;28;20038;-72
2022/10/05 11:33:41;;;;;;;2.70;2.05;;;19.10;70.70;;;;;;5113879;28;20024;-71
2022/10/05 11:36:38;;;;;;;4.20;2.20;;;19.10;70.10;;;;;;5113974;28;20080;-71
2022/10/05 11:39:10;;;;;;;4.03;2.20;;;19.20;70.00;;;;;;5113782;28;20028;-72
2022/10/05 11:41:58;;;;;;;4.32;1.98;;;19.20;71.10;;;;;;5113942;28;20366;-72
2022/10/05 11:44:50;;;;;;;4.28;2.08;;;19.30;71.40;;;;;;5113809;28;20024;-73
2022/10/05 11:47:24;;;;;;;3.65;2.25;;;19.30;70.00;;;;;;5113760;28;20039;-73
2022/10/05 11:49:58;;;;;;;4.90;2.10;;;19.30;70.20;;;;;;5113458;28;20044;-73
2022/10/05 11:52:39;;;;;;;5.45;2.60;;;19.40;70.10;;;;;;5113661;28;20047;-73
2022/10/05 11:55:13;;;;;;;3.92;2.40;;;19.50;70.20;;;;;;5113602;28;20028;-73
2022/10/05 11:57:53;;;;;;;4.88;2.50;;;19.60;70.30;;;;;;5113570;28;20062;-73
2022/10/05 12:00:29;;;;;;;3.08;2.13;;;19.80;68.90;;;;;;5113710;28;20024;-73
2022/10/05 12:03:16;;;;;;;3.13;2.13;;;19.90;69.30;;;;;;5117527;28;20020;-73
2022/10/05 12:05:54;;;;;;;4.03;2.42;;;19.90;69.30;;;;;;5117900;28;20035;-73
2022/10/05 12:08:32;;;;;;;3.20;2.13;;;19.90;68.40;;;;;;5117773;28;20054;-73
2022/10/05 12:11:12;;;;;;;3.38;2.20;;;19.90;67.90;;;;;;5117651;28;20086;-72
2022/10/05 12:13:47;;;;;;;3.55;2.08;;;19.90;68.60;;;;;;5117598;28;20024;-72
2022/10/05 12:16:21;;;;;;;5.20;2.35;;;19.90;68.40;;;;;;5117553;28;20019;-72
2022/10/05 12:19:27;;;;;;;4.50;2.05;;;20.10;68.70;;;;;;5117662;28;20497;-73
2022/10/05 12:22:25;;;;;;;1.92;1.73;;;20.20;68.30;;;;;;5117393;28;20087;-73
2022/10/05 12:25:10;;;;;;;3.30;1.85;;;20.30;66.90;;;;;;5117563;28;20040;-73
2022/10/05 12:27:45;;;;;;;4.22;2.25;;;20.40;67.80;;;;;;5117263;28;20054;-72
2022/10/05 12:30:13;;;;;;;5.47;2.20;;;20.50;67.10;;;;;;5117264;28;20020;-73
2022/10/05 12:32:53;;;;;;;3.53;2.05;;;20.50;66.70;;;;;;5117257;28;20016;-73
2022/10/05 12:35:47;;;;;;;4.85;2.05;;;20.50;67.50;;;;;;5117213;28;20083;-73
2022/10/05 12:38:24;;;;;;;3.20;2.33;;;20.70;67.90;;;;;;5099167;28;20024;-73
2022/10/05 12:41:32;;;;;;;3.17;2.13;;;20.80;67.10;;;;;;5117251;28;20024;-73
2022/10/05 12:44:22;;;;;;;2.70;1.92;;;20.90;66.30;;;;;;5117200;28;20024;-73
2022/10/05 12:47:45;;;;;;;6.43;2.28;;;21.00;67.30;;;;;;5116868;28;20074;-74
2022/10/05 12:50:26;;;;;;;2.80;2.05;;;21.10;65.70;;;;;;5054447;28;20065;-73
2022/10/05 12:53:21;;;;;;;4.28;1.80;;;21.10;65.50;;;;;;5110513;28;20056;-73
2022/10/05 12:55:52;;;;;;;2.20;1.70;;;21.20;65.10;;;;;;5116848;28;20030;-73
2022/10/05 12:58:43;;;;;;;3.55;1.67;;;21.40;65.70;;;;;;5116725;28;20024;-74
2022/10/05 13:01:25;;;;;;;4.05;1.85;;;21.40;64.20;;;;;;5116762;28;20028;-74
2022/10/05 13:04:02;;;;;;;2.40;1.73;;;21.40;64.40;;;;;;5116505;28;20027;-74
2022/10/05 13:06:49;;;;;;;2.33;1.70;;;21.30;65.30;;;;;;5098622;28;20032;-74
2022/10/05 13:09:42;;;;;;;2.78;1.50;;;21.20;64.40;;;;;;5113632;28;20063;-73
2022/10/05 13:12:16;;;;;;;;;;;21.30;64.80;;;;;;5108483;28;20028;-73
2022/10/05 13:15:07;;;;;;;3.58;1.60;;;21.30;64.40;;;;;;5115846;28;19911;-73
2022/10/05 13:17:41;;;;;;;1.80;1.40;;;21.30;63.50;;;;;;5116516;28;20020;-73
2022/10/05 13:20:19;;;;;;;3.60;1.60;;;21.30;64.20;;;;;;5116360;28;20088;-73
2022/10/05 13:23:02;;;;;;;1.73;1.45;;;21.10;63.40;;;;;;5116333;28;20020;-73
2022/10/05 13:25:41;;;;;;;3.05;1.50;;;21.10;63.70;;;;;;5116388;28;20080;-73
2022/10/05 13:28:15;;;;;;;2.65;1.48;;;21.20;63.70;;;;;;5116267;28;20088;-74
2022/10/05 13:30:58;;;;;;;2.20;1.35;;;21.20;63.70;;;;;;5116302;28;20016;-72
2022/10/05 13:33:27;;;;;;;4.07;1.80;;;21.30;63.60;;;;;;5116234;28;20023;-73
2022/10/05 13:36:17;;;;;;;2.75;1.65;;;21.40;63.00;;;;;;5115981;28;20024;-73
2022/10/05 13:38:50;;;;;;;1.88;1.25;;;21.40;63.10;;;;;;5116008;28;20050;-73
2022/10/05 13:41:33;;;;;;;3.25;1.60;;;21.30;62.60;;;;;;5116123;28;20020;-73
2022/10/05 13:44:30;;;;;;;6.65;1.50;;;21.30;62.60;;;;;;5116093;28;20035;-73
2022/10/05 13:47:10;;;;;;;4.85;1.80;;;21.20;62.30;;;;;;5115767;28;20024;-73
2022/10/05 13:49:47;;;;;;;2.22;1.73;;;21.20;62.60;;;;;;5115627;28;20043;-74
2022/10/05 13:52:16;;;;;;;2.83;1.48;;;21.20;63.90;;;;;;5115717;28;20017;-73
2022/10/05 13:54:48;;;;;;;3.70;1.50;;;21.30;63.50;;;;;;5115687;28;20020;-73
2022/10/05 13:57:16;;;;;;;;;;;21.50;63.60;;;;;;5116005;28;20085;-74
2022/10/05 13:59:57;;;;;;;2.13;1.45;;;21.50;64.10;;;;;;5115608;28;19914;-73
2022/10/05 14:02:29;;;;;;;3.92;1.60;;;21.40;63.10;;;;;;5115722;28;20070;-73
2022/10/05 14:05:18;;;;;;;3.70;1.55;;;21.20;63.10;;;;;;5115476;28;20027;-73
2022/10/05 14:07:46;;;;;;;1.92;1.42;;;21.10;63.00;;;;;;5115494;28;20032;-73
2022/10/05 14:10:26;;;;;;;4.25;1.70;;;21.10;64.00;;;;;;5097490;28;20031;-73
2022/10/05 14:12:54;;;;;;;3.53;1.40;;;21.00;64.10;;;;;;5115331;28;20027;-73